Daily Tabular Data
[Select Refresh to Update]


8/18/18
Time         Wind Dir   Wind Spd  Wind Gust     Hum In   Humidity    Temp In       Temp  Raw Barom   Tot Rain Wind Chill Heat Ix In Heat Index  Dew Point  DailyRain   HourRain   RainRate
                            mph        mph          %          %         F         F         in         in         F         F         F         F         in         in      in/hr
12:00am           166          0          5         65         89       78.5       71.9      29.19       0.00       71.9       80.9       77.4       68.5       0.00       0.00      0.000
12:30am           178          0          4         65         89       78.4       71.9      29.19       0.00       71.9       80.8       77.4       68.5       0.00       0.00      0.000
1:00am            170          2          3         65         89       78.3       71.7      29.19       0.00       71.7       80.7       77.2       68.3       0.00       0.00      0.000
1:30am            168          0          3         65         89       78.2       71.7      29.18       0.00       71.7       80.6       77.2       68.3       0.00       0.00      0.000
2:00am            290          0          0         66         90       78.1       71.4      29.18       0.00       71.4       80.6       77.0       68.3       0.00       0.00      0.000
2:30am            275          0          2         66         90       77.8       71.1      29.17       0.00       71.1       80.3       76.7       68.0       0.00       0.00      0.000
3:00am            117          0          1         66         90       77.8       71.0      29.17       0.00       71.0       80.3       76.6       67.9       0.00       0.00      0.000
3:30am            168          0          0         66         90       77.8       71.4      29.16       0.00       71.4       80.3       77.0       68.3       0.00       0.00      0.000
4:00am            292          0          0         66         90       77.6       71.0      29.16       0.00       71.0       80.1       76.6       67.9       0.00       0.00      0.000
4:30am            146          0          0         66         90       77.5       71.3      29.16       0.00       71.3       80.0       76.9       68.2       0.00       0.00      0.000
5:00am            233          0          4         66         90       77.5       71.3      29.17       0.00       71.3       80.0       76.9       68.2       0.00       0.00      0.000
5:30am            159          2          4         66         90       77.4       71.2      29.17       0.00       71.2       79.9       76.8       68.1       0.00       0.00      0.000
6:00am            187          2          5         67         89       77.1       71.1      29.17       0.00       71.1       79.7       76.6       67.7       0.00       0.00      0.000
6:30am            165          1          5         67         90       76.7       70.4      29.18       0.00       70.4       79.3       76.0       67.3       0.00       0.00      0.000
7:00am            168          4          6         66         90       76.9       70.4      29.20       0.00       70.4       79.4       76.0       67.3       0.00       0.00      0.000
7:30am            155          2          7         65         89       77.6       70.5      29.21       0.00       70.5       80.0       76.0       67.1       0.00       0.00      0.000
8:00am             44          0          5         65         90       77.6       70.6      29.21       0.00       70.6       80.0       76.2       67.5       0.00       0.00      0.000
8:30am            153          2          3         65         90       77.7       72.9      29.21       0.00       72.9       80.1       78.5       69.8       0.00       0.00      0.000
9:00am            151          1          5         65         86       78.0       72.6      29.21       0.00       72.6       80.4       77.7       68.2       0.00       0.00      0.000
9:30am            198          0          5         64         84       78.2       74.4      29.21       0.00       74.4       80.5       79.2       69.3       0.00       0.00      0.000
10:00am           318          0          4         64         75       78.6       78.0      29.21       0.00       78.0       80.9       81.6       69.4       0.00       0.00      0.000
10:30am           200          0          4         63         71       78.9       81.1      29.22       0.00       81.1       81.0       85.0       70.8       0.00       0.00      0.000
11:00am           158          0          4         64         67       79.1       83.3      29.21       0.00       83.3       81.4       88.2       71.2       0.00       0.00      0.000
11:30am           177          0          5         63         67       79.3       82.5      29.20       0.00       82.5       81.4       86.7       70.4       0.00       0.00      0.000
12:00pm           331          3          5         63         59       79.5       85.1      29.19       0.00       85.1       81.6       89.1       69.2       0.00       0.00      0.000
12:30pm           276          1          8         63         60       79.8       85.5      29.18       0.00       85.5       81.9       90.2       70.0       0.00       0.00      0.000
1:00pm            331          1          9         62         59       80.1       85.6      29.17       0.00       85.6       82.2       90.0       69.6       0.00       0.00      0.000
1:30pm            346          5         11         53         59       79.0       86.0      29.15       0.00       86.0       80.1       90.7       70.0       0.00       0.00      0.000
2:00pm            265          0          9         49         58       78.1       86.5      29.15       0.00       86.5       78.8       91.3       70.0       0.00       0.00      0.000
2:30pm             11          3          9         47         56       77.9       86.8      29.14       0.00       86.8       78.4       91.1       69.2       0.00       0.00      0.000
3:00pm            315          0         11         47         56       77.7       86.4      29.13       0.00       86.4       78.2       90.4       68.9       0.00       0.00      0.000
3:30pm            305          0         10         46         55       77.9       86.3      29.12       0.00       86.3       78.3       89.9       68.2       0.00       0.00      0.000
4:00pm            319          0          9         45         54       77.8       86.5      29.11       0.00       86.5       78.1       89.9       67.9       0.00       0.00      0.000
4:30pm            234          0         13         46         53       78.0       86.6      29.11       0.00       86.6       78.4       89.7       67.4       0.00       0.00      0.000
5:00pm            350          8         10         45         52       78.0       85.6      29.10       0.00       85.6       78.3       87.9       66.0       0.00       0.00      0.000
5:30pm            328          2          8         46         52       78.7       85.4      29.10       0.00       85.4       79.1       87.6       65.8       0.00       0.00      0.000
6:00pm            323          0          8         44         56       78.7       83.5      29.10       0.00       83.5       79.0       85.8       66.2       0.00       0.00      0.000
6:30pm            349          2          8         43         61       78.7       81.0      29.10       0.00       81.0       78.9       83.2       66.3       0.00       0.00      0.000
7:00pm            348          0          8         42         65       77.8       79.0      29.10       0.00       79.0       77.9       81.4       66.2       0.00       0.00      0.000
7:30pm            250          2          8         43         73       77.2       76.2      29.10       0.00       76.2       77.4       79.5       66.9       0.00       0.00      0.000
8:00pm            342          1          5         43         80       76.8       73.6      29.10       0.00       73.6       77.0       77.8       67.1       0.00       0.00      0.000
8:30pm             11          2          6         60         83       78.1       71.6      29.11       0.00       71.6       79.9       76.2       66.2       0.00       0.00      0.000
9:00pm            340          1          4         60         84       78.0       71.1      29.11       0.00       71.1       79.8       75.9       66.0       0.00       0.00      0.000
9:30pm            331          1          3         60         85       77.7       70.5      29.12       0.00       70.5       79.5       75.4       65.8       0.00       0.00      0.000
10:00pm           288          0          1         61         85       77.4       70.1      29.12       0.00       70.1       79.3       75.0       65.4       0.00       0.00      0.000
10:30pm           296          0          2         61         86       77.0       69.8      29.11       0.00       69.8       78.9       74.9       65.4       0.00       0.00      0.000
11:00pm           332          0          2         62         87       76.6       69.7      29.11       0.00       69.7       78.6       74.9       65.7       0.00       0.00      0.000
11:30pm           224          0          1         63         87       76.2       69.4      29.12       0.00       69.4       78.3       74.6       65.4       0.00       0.00      0.000